createdAt,value
2018-11-25T00:11:26.927Z,76.9
2018-11-25T00:26:40.259Z,77.7
2018-11-25T00:41:53.385Z,78.8
2018-11-25T00:57:06.715Z,78
2018-11-25T01:12:12.185Z,79.5
2018-11-25T01:27:31.656Z,80.7
2018-11-25T01:42:44.540Z,80.8
2018-11-25T01:57:57.003Z,81.2
2018-11-25T02:13:09.577Z,81.5
2018-11-25T02:28:22.097Z,82.1
2018-11-25T02:43:34.611Z,82.5
2018-11-25T02:58:47.184Z,82.6
2018-11-25T03:13:59.697Z,82.9
2018-11-25T03:29:07.599Z,83.5
2018-11-25T03:44:24.472Z,83.2
2018-11-25T03:59:37.288Z,81.8
2018-11-25T04:14:49.459Z,81.9
2018-11-25T04:30:01.966Z,83.2
2018-11-25T04:45:14.434Z,82.4
2018-11-25T05:00:26.902Z,82.1
2018-11-25T05:15:39.387Z,82.1
2018-11-25T05:30:51.755Z,82.5
2018-11-25T05:46:02.387Z,81.5
2018-11-25T06:01:16.680Z,81.9
2018-11-25T06:16:29.475Z,82.4
2018-11-25T06:31:41.761Z,82.8
2018-11-25T06:46:46.717Z,82.4
2018-11-25T07:02:06.855Z,82.4
2018-11-25T07:17:19.548Z,82.7
2018-11-25T07:32:32.177Z,82.6
2018-11-25T07:47:45.655Z,82.7
2018-11-25T08:02:57.798Z,82.2
2018-11-25T08:18:11.299Z,83.1
2018-11-25T08:33:23.429Z,82.5
2018-11-25T08:48:36.440Z,82.3
2018-11-25T09:03:43.530Z,80.2
2018-11-25T09:19:02.900Z,79
2018-11-25T09:34:16.280Z,77.3
2018-11-25T09:49:29.955Z,75.9
2018-11-25T10:04:43.166Z,75
2018-11-25T10:19:56.639Z,74.7
2018-11-25T10:35:10.173Z,74.2
2018-11-25T10:50:23.897Z,73.7
2018-11-25T11:05:37.733Z,70.3
2018-11-25T11:20:45.438Z,69.4
2018-11-25T11:36:05.456Z,69.3
2018-11-25T11:51:27.318Z,67.8
2018-11-25T12:06:33.500Z,67.6
2018-11-25T12:21:47.109Z,66.8
2018-11-25T12:37:00.757Z,69
2018-11-25T12:52:16.615Z,59.5
2018-11-25T13:07:33.768Z,49.2
2018-11-25T13:22:50.498Z,51.6
2018-11-25T13:30:28.943Z,34.3
2018-11-25T13:45:46.414Z,47.5
2018-11-25T14:01:03.912Z,46.1
2018-11-25T14:16:19.527Z,53
2018-11-25T14:31:24.821Z,57
2018-11-25T14:46:48.405Z,60
2018-11-25T15:02:02.228Z,63.4
2018-11-25T15:17:16.164Z,64.2
2018-11-25T15:32:29.476Z,65.8
2018-11-25T15:47:38.789Z,67.3
2018-11-25T16:02:56.386Z,69
2018-11-25T16:18:09.877Z,69.7
2018-11-25T16:33:22.856Z,70.8
2018-11-25T16:48:36.228Z,72.6
2018-11-25T17:03:49.165Z,73.6
2018-11-25T17:19:02.537Z,79.9
2018-11-25T17:34:15.712Z,77.8
2018-11-25T17:49:29.300Z,77.1
2018-11-25T18:04:36.657Z,78
2018-11-25T18:19:55.041Z,77.5
2018-11-25T18:35:08.136Z,77.2
2018-11-25T18:50:21.070Z,77
2018-11-25T19:05:33.899Z,76.9
2018-11-25T19:20:47.077Z,76.7
2018-11-25T19:36:00.022Z,78
2018-11-25T19:51:17.895Z,75.6
2018-11-25T20:06:26.094Z,75
2018-11-25T20:21:35.412Z,78.3
2018-11-25T20:36:52.136Z,76.8
2018-11-25T20:52:05.107Z,75.8
2018-11-25T21:07:18.348Z,76.1
2018-11-25T21:22:21.059Z,73.1
2018-11-25T21:37:45.372Z,73.3
2018-11-25T21:52:58.339Z,74.6
2018-11-25T22:08:11.485Z,75.5
2018-11-25T22:23:24.734Z,76.4
2018-11-25T22:38:33.688Z,75.3
2018-11-25T22:53:50.333Z,77.3
2018-11-25T23:09:03.685Z,76.9
2018-11-25T23:24:16.750Z,77.3
2018-11-25T23:39:29.647Z,77.8
2018-11-25T23:54:42.741Z,77.4
